sensor_id;sensor_type;location;lat;lon;timestamp;P1;durP1;ratioP1;P2;durP2;ratioP2
76063;SDS011;64762;52.006;8.424;2023-05-25T00:01:25;20.73;;;6.00;;
76063;SDS011;64762;52.006;8.424;2023-05-25T00:03:51;19.80;;;6.27;;
76063;SDS011;64762;52.006;8.424;2023-05-25T00:06:17;22.50;;;6.35;;
76063;SDS011;64762;52.006;8.424;2023-05-25T00:08:44;17.02;;;6.82;;
76063;SDS011;64762;52.006;8.424;2023-05-25T00:11:10;24.65;;;6.05;;
76063;SDS011;64762;52.006;8.424;2023-05-25T00:13:36;16.70;;;6.80;;
76063;SDS011;64762;52.006;8.424;2023-05-25T00:16:01;18.23;;;6.57;;
76063;SDS011;64762;52.006;8.424;2023-05-25T00:18:26;19.53;;;6.90;;
76063;SDS011;64762;52.006;8.424;2023-05-25T00:20:52;18.13;;;6.37;;
76063;SDS011;64762;52.006;8.424;2023-05-25T00:23:18;22.42;;;8.27;;
76063;SDS011;64762;52.006;8.424;2023-05-25T00:25:44;16.17;;;5.97;;
76063;SDS011;64762;52.006;8.424;2023-05-25T00:28:09;31.30;;;7.57;;
76063;SDS011;64762;52.006;8.424;2023-05-25T00:30:35;25.38;;;6.15;;
76063;SDS011;64762;52.006;8.424;2023-05-25T00:33:00;21.10;;;6.90;;
76063;SDS011;64762;52.006;8.424;2023-05-25T00:35:26;23.25;;;6.10;;
76063;SDS011;64762;52.006;8.424;2023-05-25T00:37:52;18.60;;;6.63;;
76063;SDS011;64762;52.006;8.424;2023-05-25T00:40:17;23.97;;;6.43;;
76063;SDS011;64762;52.006;8.424;2023-05-25T00:42:43;16.98;;;6.82;;
76063;SDS011;64762;52.006;8.424;2023-05-25T00:45:09;14.17;;;5.80;;
76063;SDS011;64762;52.006;8.424;2023-05-25T00:47:34;21.48;;;6.30;;
76063;SDS011;64762;52.006;8.424;2023-05-25T00:50:00;21.63;;;6.20;;
76063;SDS011;64762;52.006;8.424;2023-05-25T00:52:26;20.25;;;6.50;;
76063;SDS011;64762;52.006;8.424;2023-05-25T00:54:52;19.27;;;6.60;;
76063;SDS011;64762;52.006;8.424;2023-05-25T00:57:19;21.23;;;6.30;;
76063;SDS011;64762;52.006;8.424;2023-05-25T00:59:48;19.33;;;6.35;;
76063;SDS011;64762;52.006;8.424;2023-05-25T01:02:15;23.55;;;6.25;;
76063;SDS011;64762;52.006;8.424;2023-05-25T01:04:44;21.05;;;6.43;;
76063;SDS011;64762;52.006;8.424;2023-05-25T01:07:14;17.70;;;6.32;;
76063;SDS011;64762;52.006;8.424;2023-05-25T01:12:08;21.02;;;6.45;;
76063;SDS011;64762;52.006;8.424;2023-05-25T01:14:37;20.80;;;7.05;;
76063;SDS011;64762;52.006;8.424;2023-05-25T01:17:04;16.77;;;6.57;;
76063;SDS011;64762;52.006;8.424;2023-05-25T01:19:30;23.80;;;6.68;;
76063;SDS011;64762;52.006;8.424;2023-05-25T01:25:08;17.73;;;6.13;;
76063;SDS011;64762;52.006;8.424;2023-05-25T01:27:43;19.40;;;6.85;;
76063;SDS011;64762;52.006;8.424;2023-05-25T01:32:37;21.95;;;6.93;;
76063;SDS011;64762;52.006;8.424;2023-05-25T01:35:03;16.07;;;6.20;;
76063;SDS011;64762;52.006;8.424;2023-05-25T01:37:29;20.17;;;7.22;;
76063;SDS011;64762;52.006;8.424;2023-05-25T01:39:55;18.17;;;6.40;;
76063;SDS011;64762;52.006;8.424;2023-05-25T01:42:21;19.70;;;6.83;;
76063;SDS011;64762;52.006;8.424;2023-05-25T01:44:46;20.60;;;7.07;;
76063;SDS011;64762;52.006;8.424;2023-05-25T01:50:06;22.40;;;7.15;;
76063;SDS011;64762;52.006;8.424;2023-05-25T01:52:37;25.25;;;6.97;;
76063;SDS011;64762;52.006;8.424;2023-05-25T01:55:07;15.60;;;6.95;;
76063;SDS011;64762;52.006;8.424;2023-05-25T01:57:36;16.45;;;6.75;;
76063;SDS011;64762;52.006;8.424;2023-05-25T02:00:05;19.00;;;6.75;;
76063;SDS011;64762;52.006;8.424;2023-05-25T02:02:32;18.92;;;6.50;;
76063;SDS011;64762;52.006;8.424;2023-05-25T02:04:58;19.02;;;7.82;;
76063;SDS011;64762;52.006;8.424;2023-05-25T02:07:23;17.47;;;7.00;;
76063;SDS011;64762;52.006;8.424;2023-05-25T02:09:49;17.67;;;6.50;;
76063;SDS011;64762;52.006;8.424;2023-05-25T02:12:15;24.85;;;7.70;;
76063;SDS011;64762;52.006;8.424;2023-05-25T02:14:40;19.27;;;8.20;;
76063;SDS011;64762;52.006;8.424;2023-05-25T02:17:05;22.30;;;6.72;;
76063;SDS011;64762;52.006;8.424;2023-05-25T02:19:31;20.90;;;7.03;;
76063;SDS011;64762;52.006;8.424;2023-05-25T02:21:56;19.25;;;7.78;;
76063;SDS011;64762;52.006;8.424;2023-05-25T02:24:22;22.03;;;7.13;;
76063;SDS011;64762;52.006;8.424;2023-05-25T02:26:51;21.42;;;6.88;;
76063;SDS011;64762;52.006;8.424;2023-05-25T02:29:16;20.60;;;7.70;;
76063;SDS011;64762;52.006;8.424;2023-05-25T02:31:41;19.97;;;6.83;;
76063;SDS011;64762;52.006;8.424;2023-05-25T02:34:07;21.50;;;8.05;;
76063;SDS011;64762;52.006;8.424;2023-05-25T02:36:33;23.53;;;7.33;;
76063;SDS011;64762;52.006;8.424;2023-05-25T02:39:01;21.92;;;7.38;;
76063;SDS011;64762;52.006;8.424;2023-05-25T02:41:26;20.77;;;7.50;;
76063;SDS011;64762;52.006;8.424;2023-05-25T02:43:52;20.33;;;7.57;;
76063;SDS011;64762;52.006;8.424;2023-05-25T02:46:17;19.90;;;6.80;;
76063;SDS011;64762;52.006;8.424;2023-05-25T02:48:43;20.77;;;7.18;;
76063;SDS011;64762;52.006;8.424;2023-05-25T02:51:09;22.33;;;6.82;;
76063;SDS011;64762;52.006;8.424;2023-05-25T02:53:34;29.35;;;8.07;;
76063;SDS011;64762;52.006;8.424;2023-05-25T02:56:00;17.23;;;6.60;;
76063;SDS011;64762;52.006;8.424;2023-05-25T02:58:27;23.88;;;7.40;;
76063;SDS011;64762;52.006;8.424;2023-05-25T03:00:53;18.17;;;6.80;;
76063;SDS011;64762;52.006;8.424;2023-05-25T03:03:18;20.58;;;7.15;;
76063;SDS011;64762;52.006;8.424;2023-05-25T03:05:44;17.63;;;6.97;;
76063;SDS011;64762;52.006;8.424;2023-05-25T03:08:09;17.92;;;8.20;;
76063;SDS011;64762;52.006;8.424;2023-05-25T03:10:35;26.70;;;7.10;;
76063;SDS011;64762;52.006;8.424;2023-05-25T03:13:00;18.75;;;6.45;;
76063;SDS011;64762;52.006;8.424;2023-05-25T03:15:26;19.48;;;7.03;;
76063;SDS011;64762;52.006;8.424;2023-05-25T03:17:51;20.50;;;7.20;;
76063;SDS011;64762;52.006;8.424;2023-05-25T03:20:17;17.63;;;6.80;;
76063;SDS011;64762;52.006;8.424;2023-05-25T03:22:44;16.40;;;6.25;;
76063;SDS011;64762;52.006;8.424;2023-05-25T03:25:10;17.47;;;7.63;;
76063;SDS011;64762;52.006;8.424;2023-05-25T03:27:38;16.38;;;6.90;;
76063;SDS011;64762;52.006;8.424;2023-05-25T03:30:04;17.58;;;7.10;;
76063;SDS011;64762;52.006;8.424;2023-05-25T03:32:29;18.70;;;7.60;;
76063;SDS011;64762;52.006;8.424;2023-05-25T03:34:56;20.83;;;7.55;;
76063;SDS011;64762;52.006;8.424;2023-05-25T03:37:21;19.03;;;7.83;;
76063;SDS011;64762;52.006;8.424;2023-05-25T03:39:46;19.03;;;8.00;;
76063;SDS011;64762;52.006;8.424;2023-05-25T03:42:12;18.83;;;7.10;;
76063;SDS011;64762;52.006;8.424;2023-05-25T03:44:37;21.93;;;7.13;;
76063;SDS011;64762;52.006;8.424;2023-05-25T03:47:02;14.63;;;7.07;;
76063;SDS011;64762;52.006;8.424;2023-05-25T03:49:28;16.02;;;7.13;;
76063;SDS011;64762;52.006;8.424;2023-05-25T03:51:53;18.77;;;6.47;;
76063;SDS011;64762;52.006;8.424;2023-05-25T03:54:18;22.35;;;7.40;;
76063;SDS011;64762;52.006;8.424;2023-05-25T03:56:44;16.65;;;7.18;;
76063;SDS011;64762;52.006;8.424;2023-05-25T03:59:09;21.23;;;7.43;;
76063;SDS011;64762;52.006;8.424;2023-05-25T04:01:35;18.13;;;7.07;;
76063;SDS011;64762;52.006;8.424;2023-05-25T04:04:02;21.08;;;7.80;;
76063;SDS011;64762;52.006;8.424;2023-05-25T04:06:28;18.23;;;7.38;;
76063;SDS011;64762;52.006;8.424;2023-05-25T04:08:54;23.25;;;7.35;;
76063;SDS011;64762;52.006;8.424;2023-05-25T04:11:19;15.45;;;7.47;;
76063;SDS011;64762;52.006;8.424;2023-05-25T04:13:46;19.67;;;7.72;;
76063;SDS011;64762;52.006;8.424;2023-05-25T04:16:11;23.30;;;7.87;;
76063;SDS011;64762;52.006;8.424;2023-05-25T04:18:37;18.40;;;7.23;;
76063;SDS011;64762;52.006;8.424;2023-05-25T04:21:02;18.23;;;7.83;;
76063;SDS011;64762;52.006;8.424;2023-05-25T04:23:27;16.42;;;6.95;;
76063;SDS011;64762;52.006;8.424;2023-05-25T04:25:53;19.23;;;7.53;;
76063;SDS011;64762;52.006;8.424;2023-05-25T04:28:18;19.38;;;7.75;;
76063;SDS011;64762;52.006;8.424;2023-05-25T04:30:44;20.67;;;6.57;;
76063;SDS011;64762;52.006;8.424;2023-05-25T04:33:09;16.17;;;7.07;;
76063;SDS011;64762;52.006;8.424;2023-05-25T04:35:38;18.15;;;7.53;;
76063;SDS011;64762;52.006;8.424;2023-05-25T04:38:06;18.10;;;7.18;;
76063;SDS011;64762;52.006;8.424;2023-05-25T04:40:32;19.60;;;7.30;;
76063;SDS011;64762;52.006;8.424;2023-05-25T04:42:59;23.80;;;8.63;;
76063;SDS011;64762;52.006;8.424;2023-05-25T04:45:24;20.20;;;7.32;;
76063;SDS011;64762;52.006;8.424;2023-05-25T04:47:50;15.80;;;7.83;;
76063;SDS011;64762;52.006;8.424;2023-05-25T04:50:15;20.43;;;8.30;;
76063;SDS011;64762;52.006;8.424;2023-05-25T04:52:40;22.37;;;7.77;;
76063;SDS011;64762;52.006;8.424;2023-05-25T04:55:06;21.83;;;7.43;;
76063;SDS011;64762;52.006;8.424;2023-05-25T04:57:31;23.05;;;7.53;;
76063;SDS011;64762;52.006;8.424;2023-05-25T04:59:57;22.60;;;8.13;;
76063;SDS011;64762;52.006;8.424;2023-05-25T05:02:22;23.75;;;8.75;;
76063;SDS011;64762;52.006;8.424;2023-05-25T05:04:48;22.50;;;8.00;;
76063;SDS011;64762;52.006;8.424;2023-05-25T05:07:17;20.92;;;7.97;;
76063;SDS011;64762;52.006;8.424;2023-05-25T05:09:43;35.83;;;8.10;;
76063;SDS011;64762;52.006;8.424;2023-05-25T05:12:08;27.30;;;8.27;;
76063;SDS011;64762;52.006;8.424;2023-05-25T05:14:34;23.33;;;8.50;;
76063;SDS011;64762;52.006;8.424;2023-05-25T05:16:59;20.42;;;8.20;;
76063;SDS011;64762;52.006;8.424;2023-05-25T05:19:25;21.97;;;8.20;;
76063;SDS011;64762;52.006;8.424;2023-05-25T05:21:50;23.53;;;8.10;;
76063;SDS011;64762;52.006;8.424;2023-05-25T05:24:15;22.33;;;9.00;;
76063;SDS011;64762;52.006;8.424;2023-05-25T05:26:40;19.67;;;8.50;;
76063;SDS011;64762;52.006;8.424;2023-05-25T05:29:06;20.00;;;6.90;;
76063;SDS011;64762;52.006;8.424;2023-05-25T05:31:31;23.27;;;7.27;;
76063;SDS011;64762;52.006;8.424;2023-05-25T05:33:57;19.77;;;7.53;;
76063;SDS011;64762;52.006;8.424;2023-05-25T05:36:22;21.43;;;7.10;;
76063;SDS011;64762;52.006;8.424;2023-05-25T05:38:47;25.73;;;7.10;;
76063;SDS011;64762;52.006;8.424;2023-05-25T05:41:13;20.27;;;6.93;;
76063;SDS011;64762;52.006;8.424;2023-05-25T05:43:39;21.33;;;7.13;;
76063;SDS011;64762;52.006;8.424;2023-05-25T05:46:11;18.55;;;7.10;;
76063;SDS011;64762;52.006;8.424;2023-05-25T05:48:36;17.92;;;6.97;;
76063;SDS011;64762;52.006;8.424;2023-05-25T05:51:05;16.33;;;6.70;;
76063;SDS011;64762;52.006;8.424;2023-05-25T05:53:30;19.10;;;7.70;;
76063;SDS011;64762;52.006;8.424;2023-05-25T05:55:56;17.48;;;7.20;;
76063;SDS011;64762;52.006;8.424;2023-05-25T05:58:24;21.40;;;7.25;;
76063;SDS011;64762;52.006;8.424;2023-05-25T06:00:53;19.45;;;8.07;;
76063;SDS011;64762;52.006;8.424;2023-05-25T06:03:20;21.10;;;7.40;;
76063;SDS011;64762;52.006;8.424;2023-05-25T06:05:46;22.23;;;8.32;;
76063;SDS011;64762;52.006;8.424;2023-05-25T06:08:12;24.27;;;9.73;;
76063;SDS011;64762;52.006;8.424;2023-05-25T06:10:37;23.08;;;9.75;;
76063;SDS011;64762;52.006;8.424;2023-05-25T06:13:03;23.10;;;9.63;;
76063;SDS011;64762;52.006;8.424;2023-05-25T06:15:28;29.02;;;9.82;;
76063;SDS011;64762;52.006;8.424;2023-05-25T06:17:54;22.48;;;9.73;;
76063;SDS011;64762;52.006;8.424;2023-05-25T06:20:19;24.17;;;10.13;;
76063;SDS011;64762;52.006;8.424;2023-05-25T06:22:45;30.42;;;10.18;;
76063;SDS011;64762;52.006;8.424;2023-05-25T06:25:10;31.80;;;12.60;;
76063;SDS011;64762;52.006;8.424;2023-05-25T06:27:36;30.17;;;10.82;;
76063;SDS011;64762;52.006;8.424;2023-05-25T06:30:01;31.35;;;11.18;;
76063;SDS011;64762;52.006;8.424;2023-05-25T06:32:27;28.08;;;11.57;;
76063;SDS011;64762;52.006;8.424;2023-05-25T06:34:52;30.93;;;11.90;;
76063;SDS011;64762;52.006;8.424;2023-05-25T06:37:18;31.67;;;13.23;;
76063;SDS011;64762;52.006;8.424;2023-05-25T06:39:43;30.30;;;11.47;;
76063;SDS011;64762;52.006;8.424;2023-05-25T06:42:08;28.20;;;11.33;;
76063;SDS011;64762;52.006;8.424;2023-05-25T06:44:35;36.95;;;12.40;;
76063;SDS011;64762;52.006;8.424;2023-05-25T06:47:00;28.07;;;11.87;;
76063;SDS011;64762;52.006;8.424;2023-05-25T06:49:26;31.52;;;11.32;;
76063;SDS011;64762;52.006;8.424;2023-05-25T06:51:52;32.65;;;11.85;;
76063;SDS011;64762;52.006;8.424;2023-05-25T06:54:17;37.40;;;13.77;;
76063;SDS011;64762;52.006;8.424;2023-05-25T06:56:43;35.20;;;12.02;;
76063;SDS011;64762;52.006;8.424;2023-05-25T06:59:09;26.63;;;11.10;;
76063;SDS011;64762;52.006;8.424;2023-05-25T07:01:34;40.67;;;13.53;;
76063;SDS011;64762;52.006;8.424;2023-05-25T07:04:00;31.10;;;11.82;;
76063;SDS011;64762;52.006;8.424;2023-05-25T07:06:25;30.60;;;12.10;;
76063;SDS011;64762;52.006;8.424;2023-05-25T07:08:51;32.23;;;14.27;;
76063;SDS011;64762;52.006;8.424;2023-05-25T07:11:16;31.50;;;13.10;;
76063;SDS011;64762;52.006;8.424;2023-05-25T07:13:44;34.55;;;12.55;;
76063;SDS011;64762;52.006;8.424;2023-05-25T07:16:10;31.63;;;12.45;;
76063;SDS011;64762;52.006;8.424;2023-05-25T07:18:37;27.57;;;11.77;;
76063;SDS011;64762;52.006;8.424;2023-05-25T07:21:03;31.23;;;11.82;;
76063;SDS011;64762;52.006;8.424;2023-05-25T07:23:28;25.73;;;11.67;;
76063;SDS011;64762;52.006;8.424;2023-05-25T07:25:54;35.90;;;11.87;;
76063;SDS011;64762;52.006;8.424;2023-05-25T07:28:19;33.72;;;12.00;;
76063;SDS011;64762;52.006;8.424;2023-05-25T07:30:44;34.30;;;11.73;;
76063;SDS011;64762;52.006;8.424;2023-05-25T07:33:10;31.43;;;11.07;;
76063;SDS011;64762;52.006;8.424;2023-05-25T07:35:35;33.97;;;10.90;;
76063;SDS011;64762;52.006;8.424;2023-05-25T07:38:01;22.90;;;10.05;;
76063;SDS011;64762;52.006;8.424;2023-05-25T07:40:28;27.33;;;10.65;;
76063;SDS011;64762;52.006;8.424;2023-05-25T07:42:54;30.80;;;11.48;;
76063;SDS011;64762;52.006;8.424;2023-05-25T07:45:19;23.83;;;10.50;;
76063;SDS011;64762;52.006;8.424;2023-05-25T07:47:45;29.85;;;10.88;;
76063;SDS011;64762;52.006;8.424;2023-05-25T07:50:10;31.73;;;11.10;;
76063;SDS011;64762;52.006;8.424;2023-05-25T07:52:35;30.47;;;11.70;;
76063;SDS011;64762;52.006;8.424;2023-05-25T07:55:02;26.83;;;11.10;;
76063;SDS011;64762;52.006;8.424;2023-05-25T07:57:28;34.25;;;10.45;;
76063;SDS011;64762;52.006;8.424;2023-05-25T07:59:53;28.77;;;10.97;;
76063;SDS011;64762;52.006;8.424;2023-05-25T08:02:18;36.13;;;10.70;;
76063;SDS011;64762;52.006;8.424;2023-05-25T08:04:44;27.98;;;10.43;;
76063;SDS011;64762;52.006;8.424;2023-05-25T08:07:09;31.00;;;11.03;;
76063;SDS011;64762;52.006;8.424;2023-05-25T08:09:35;31.50;;;10.02;;
76063;SDS011;64762;52.006;8.424;2023-05-25T08:12:00;28.50;;;10.80;;
76063;SDS011;64762;52.006;8.424;2023-05-25T08:14:26;26.07;;;9.27;;
76063;SDS011;64762;52.006;8.424;2023-05-25T08:16:51;24.20;;;8.90;;
76063;SDS011;64762;52.006;8.424;2023-05-25T08:19:16;23.33;;;9.17;;
76063;SDS011;64762;52.006;8.424;2023-05-25T08:21:42;23.50;;;9.13;;
76063;SDS011;64762;52.006;8.424;2023-05-25T08:24:07;26.23;;;10.27;;
76063;SDS011;64762;52.006;8.424;2023-05-25T08:26:33;25.35;;;10.27;;
76063;SDS011;64762;52.006;8.424;2023-05-25T08:29:00;25.23;;;9.63;;
76063;SDS011;64762;52.006;8.424;2023-05-25T08:31:29;26.85;;;9.70;;
76063;SDS011;64762;52.006;8.424;2023-05-25T08:33:55;22.95;;;10.02;;
76063;SDS011;64762;52.006;8.424;2023-05-25T08:36:21;28.97;;;10.37;;
76063;SDS011;64762;52.006;8.424;2023-05-25T08:38:46;24.13;;;10.63;;
76063;SDS011;64762;52.006;8.424;2023-05-25T08:41:11;23.27;;;9.10;;
76063;SDS011;64762;52.006;8.424;2023-05-25T08:43:37;20.87;;;8.20;;
76063;SDS011;64762;52.006;8.424;2023-05-25T08:46:03;27.73;;;9.18;;
76063;SDS011;64762;52.006;8.424;2023-05-25T08:48:30;26.40;;;10.27;;
76063;SDS011;64762;52.006;8.424;2023-05-25T08:51:00;28.45;;;9.82;;
76063;SDS011;64762;52.006;8.424;2023-05-25T08:53:29;29.00;;;10.02;;
76063;SDS011;64762;52.006;8.424;2023-05-25T08:55:59;25.50;;;9.75;;
76063;SDS011;64762;52.006;8.424;2023-05-25T08:58:32;19.27;;;9.63;;
76063;SDS011;64762;52.006;8.424;2023-05-25T09:01:00;29.33;;;10.13;;
76063;SDS011;64762;52.006;8.424;2023-05-25T09:03:26;24.98;;;9.82;;
76063;SDS011;64762;52.006;8.424;2023-05-25T09:05:55;27.15;;;9.45;;
76063;SDS011;64762;52.006;8.424;2023-05-25T09:08:20;30.55;;;9.85;;
76063;SDS011;64762;52.006;8.424;2023-05-25T09:10:46;22.33;;;9.38;;
76063;SDS011;64762;52.006;8.424;2023-05-25T09:13:12;26.10;;;10.95;;
76063;SDS011;64762;52.006;8.424;2023-05-25T09:15:37;24.73;;;10.00;;
76063;SDS011;64762;52.006;8.424;2023-05-25T09:18:03;25.97;;;11.07;;
76063;SDS011;64762;52.006;8.424;2023-05-25T09:20:28;24.83;;;10.00;;
76063;SDS011;64762;52.006;8.424;2023-05-25T09:22:58;22.73;;;9.70;;
76063;SDS011;64762;52.006;8.424;2023-05-25T09:25:24;21.65;;;9.52;;
76063;SDS011;64762;52.006;8.424;2023-05-25T09:27:51;27.73;;;10.02;;
76063;SDS011;64762;52.006;8.424;2023-05-25T09:30:17;23.67;;;9.68;;
76063;SDS011;64762;52.006;8.424;2023-05-25T09:32:42;24.30;;;9.93;;
76063;SDS011;64762;52.006;8.424;2023-05-25T09:35:11;29.50;;;10.90;;
76063;SDS011;64762;52.006;8.424;2023-05-25T09:37:38;26.48;;;11.15;;
76063;SDS011;64762;52.006;8.424;2023-05-25T09:40:05;25.38;;;9.52;;
76063;SDS011;64762;52.006;8.424;2023-05-25T09:42:32;29.67;;;10.50;;
76063;SDS011;64762;52.006;8.424;2023-05-25T09:44:58;32.88;;;10.88;;
76063;SDS011;64762;52.006;8.424;2023-05-25T09:47:24;25.70;;;9.93;;
76063;SDS011;64762;52.006;8.424;2023-05-25T09:49:50;22.80;;;10.35;;
76063;SDS011;64762;52.006;8.424;2023-05-25T09:52:16;23.58;;;9.82;;
76063;SDS011;64762;52.006;8.424;2023-05-25T09:54:46;25.40;;;11.15;;
76063;SDS011;64762;52.006;8.424;2023-05-25T09:57:11;24.75;;;9.95;;
76063;SDS011;64762;52.006;8.424;2023-05-25T09:59:37;32.72;;;11.70;;
76063;SDS011;64762;52.006;8.424;2023-05-25T10:02:02;27.30;;;10.65;;
76063;SDS011;64762;52.006;8.424;2023-05-25T10:04:28;24.80;;;9.57;;
76063;SDS011;64762;52.006;8.424;2023-05-25T10:06:53;19.93;;;9.43;;
76063;SDS011;64762;52.006;8.424;2023-05-25T10:09:21;26.30;;;10.60;;
76063;SDS011;64762;52.006;8.424;2023-05-25T10:11:46;27.73;;;10.18;;
76063;SDS011;64762;52.006;8.424;2023-05-25T10:14:16;26.90;;;9.60;;
76063;SDS011;64762;52.006;8.424;2023-05-25T10:16:44;24.52;;;9.82;;
76063;SDS011;64762;52.006;8.424;2023-05-25T10:21:50;20.73;;;8.45;;
76063;SDS011;64762;52.006;8.424;2023-05-25T10:27:04;23.05;;;8.32;;
76063;SDS011;64762;52.006;8.424;2023-05-25T10:29:30;22.85;;;8.80;;
76063;SDS011;64762;52.006;8.424;2023-05-25T10:31:56;19.05;;;7.32;;
76063;SDS011;64762;52.006;8.424;2023-05-25T10:34:22;23.17;;;8.23;;
76063;SDS011;64762;52.006;8.424;2023-05-25T10:36:47;19.40;;;7.07;;
76063;SDS011;64762;52.006;8.424;2023-05-25T10:39:13;18.77;;;8.13;;
76063;SDS011;64762;52.006;8.424;2023-05-25T10:41:39;18.45;;;6.93;;
76063;SDS011;64762;52.006;8.424;2023-05-25T10:44:06;17.55;;;7.05;;
76063;SDS011;64762;52.006;8.424;2023-05-25T10:46:32;21.08;;;8.15;;
76063;SDS011;64762;52.006;8.424;2023-05-25T10:48:57;22.25;;;6.88;;
76063;SDS011;64762;52.006;8.424;2023-05-25T10:51:35;16.98;;;7.07;;
76063;SDS011;64762;52.006;8.424;2023-05-25T10:54:02;14.82;;;7.28;;
76063;SDS011;64762;52.006;8.424;2023-05-25T10:56:28;18.50;;;6.97;;
76063;SDS011;64762;52.006;8.424;2023-05-25T10:58:53;25.93;;;7.70;;
76063;SDS011;64762;52.006;8.424;2023-05-25T11:01:18;22.02;;;7.30;;
76063;SDS011;64762;52.006;8.424;2023-05-25T11:06:13;16.58;;;7.22;;
76063;SDS011;64762;52.006;8.424;2023-05-25T11:08:48;16.30;;;7.80;;
76063;SDS011;64762;52.006;8.424;2023-05-25T11:11:18;21.65;;;6.82;;
76063;SDS011;64762;52.006;8.424;2023-05-25T11:13:47;20.33;;;5.95;;
76063;SDS011;64762;52.006;8.424;2023-05-25T11:24:14;14.25;;;6.78;;
76063;SDS011;64762;52.006;8.424;2023-05-25T11:26:57;20.05;;;5.55;;
76063;SDS011;64762;52.006;8.424;2023-05-25T11:29:25;21.58;;;6.22;;
76063;SDS011;64762;52.006;8.424;2023-05-25T11:31:55;17.88;;;5.55;;
76063;SDS011;64762;52.006;8.424;2023-05-25T11:34:23;15.40;;;5.93;;
76063;SDS011;64762;52.006;8.424;2023-05-25T11:36:56;15.20;;;5.20;;
76063;SDS011;64762;52.006;8.424;2023-05-25T11:39:22;13.10;;;5.55;;
76063;SDS011;64762;52.006;8.424;2023-05-25T11:41:49;15.10;;;5.55;;
76063;SDS011;64762;52.006;8.424;2023-05-25T11:44:28;20.85;;;5.85;;
76063;SDS011;64762;52.006;8.424;2023-05-25T11:46:55;15.63;;;6.47;;
76063;SDS011;64762;52.006;8.424;2023-05-25T11:49:21;10.23;;;4.85;;
76063;SDS011;64762;52.006;8.424;2023-05-25T11:51:48;16.38;;;5.80;;
76063;SDS011;64762;52.006;8.424;2023-05-25T11:54:21;13.43;;;5.47;;
76063;SDS011;64762;52.006;8.424;2023-05-25T11:56:47;11.88;;;5.18;;
76063;SDS011;64762;52.006;8.424;2023-05-25T11:59:13;17.45;;;5.65;;
76063;SDS011;64762;52.006;8.424;2023-05-25T12:01:38;12.53;;;5.30;;
76063;SDS011;64762;52.006;8.424;2023-05-25T12:04:08;9.27;;;5.03;;
76063;SDS011;64762;52.006;8.424;2023-05-25T12:06:34;14.25;;;5.00;;
76063;SDS011;64762;52.006;8.424;2023-05-25T12:09:00;13.80;;;5.13;;
76063;SDS011;64762;52.006;8.424;2023-05-25T12:11:44;39.00;;;5.63;;
76063;SDS011;64762;52.006;8.424;2023-05-25T12:14:10;15.32;;;5.20;;
76063;SDS011;64762;52.006;8.424;2023-05-25T12:16:36;18.80;;;5.78;;
76063;SDS011;64762;52.006;8.424;2023-05-25T12:19:02;13.23;;;4.82;;
76063;SDS011;64762;52.006;8.424;2023-05-25T12:21:28;12.65;;;5.45;;
76063;SDS011;64762;52.006;8.424;2023-05-25T12:23:54;11.30;;;4.90;;
76063;SDS011;64762;52.006;8.424;2023-05-25T12:26:20;10.95;;;4.70;;
76063;SDS011;64762;52.006;8.424;2023-05-25T12:28:59;12.13;;;5.22;;
76063;SDS011;64762;52.006;8.424;2023-05-25T12:31:31;12.80;;;5.40;;
76063;SDS011;64762;52.006;8.424;2023-05-25T12:39:16;15.30;;;5.72;;
76063;SDS011;64762;52.006;8.424;2023-05-25T12:41:47;23.30;;;5.80;;
76063;SDS011;64762;52.006;8.424;2023-05-25T12:44:17;15.00;;;5.93;;
76063;SDS011;64762;52.006;8.424;2023-05-25T12:46:49;11.60;;;4.95;;
76063;SDS011;64762;52.006;8.424;2023-05-25T12:49:31;13.23;;;5.13;;
76063;SDS011;64762;52.006;8.424;2023-05-25T12:51:58;15.18;;;5.72;;
76063;SDS011;64762;52.006;8.424;2023-05-25T12:57:05;12.75;;;5.07;;
76063;SDS011;64762;52.006;8.424;2023-05-25T12:59:54;11.70;;;4.85;;
76063;SDS011;64762;52.006;8.424;2023-05-25T13:02:20;11.30;;;4.45;;
76063;SDS011;64762;52.006;8.424;2023-05-25T13:04:45;14.68;;;4.72;;
76063;SDS011;64762;52.006;8.424;2023-05-25T13:07:11;14.55;;;4.55;;
76063;SDS011;64762;52.006;8.424;2023-05-25T13:09:36;10.93;;;4.75;;
76063;SDS011;64762;52.006;8.424;2023-05-25T13:12:02;13.38;;;4.57;;
76063;SDS011;64762;52.006;8.424;2023-05-25T13:14:28;15.15;;;5.15;;
76063;SDS011;64762;52.006;8.424;2023-05-25T13:16:54;16.35;;;4.68;;
76063;SDS011;64762;52.006;8.424;2023-05-25T13:19:21;14.07;;;5.05;;
76063;SDS011;64762;52.006;8.424;2023-05-25T13:21:48;12.18;;;4.82;;
76063;SDS011;64762;52.006;8.424;2023-05-25T13:24:14;15.55;;;4.80;;
76063;SDS011;64762;52.006;8.424;2023-05-25T13:26:46;11.38;;;4.97;;
76063;SDS011;64762;52.006;8.424;2023-05-25T13:29:12;12.52;;;5.45;;
76063;SDS011;64762;52.006;8.424;2023-05-25T13:31:37;16.17;;;6.27;;
76063;SDS011;64762;52.006;8.424;2023-05-25T13:34:02;15.05;;;5.47;;
76063;SDS011;64762;52.006;8.424;2023-05-25T13:36:28;13.40;;;5.28;;
76063;SDS011;64762;52.006;8.424;2023-05-25T13:38:54;12.40;;;4.78;;
76063;SDS011;64762;52.006;8.424;2023-05-25T13:41:19;10.10;;;4.43;;
76063;SDS011;64762;52.006;8.424;2023-05-25T13:43:45;14.52;;;4.70;;
76063;SDS011;64762;52.006;8.424;2023-05-25T13:46:11;11.52;;;4.18;;
76063;SDS011;64762;52.006;8.424;2023-05-25T13:48:37;11.35;;;4.82;;
76063;SDS011;64762;52.006;8.424;2023-05-25T13:51:02;12.70;;;4.25;;
76063;SDS011;64762;52.006;8.424;2023-05-25T13:53:28;10.93;;;4.53;;
76063;SDS011;64762;52.006;8.424;2023-05-25T13:55:54;15.57;;;5.35;;
76063;SDS011;64762;52.006;8.424;2023-05-25T13:58:19;11.30;;;5.27;;
76063;SDS011;64762;52.006;8.424;2023-05-25T14:00:44;17.30;;;5.60;;
76063;SDS011;64762;52.006;8.424;2023-05-25T14:03:10;15.55;;;6.03;;
76063;SDS011;64762;52.006;8.424;2023-05-25T14:05:35;13.80;;;5.80;;
76063;SDS011;64762;52.006;8.424;2023-05-25T14:08:00;15.02;;;5.15;;
76063;SDS011;64762;52.006;8.424;2023-05-25T14:10:28;12.23;;;5.45;;
76063;SDS011;64762;52.006;8.424;2023-05-25T14:12:54;11.95;;;4.93;;
76063;SDS011;64762;52.006;8.424;2023-05-25T14:15:20;17.77;;;6.72;;
76063;SDS011;64762;52.006;8.424;2023-05-25T14:17:45;15.93;;;5.00;;
76063;SDS011;64762;52.006;8.424;2023-05-25T14:20:10;21.20;;;6.00;;
76063;SDS011;64762;52.006;8.424;2023-05-25T14:22:39;22.52;;;6.63;;
76063;SDS011;64762;52.006;8.424;2023-05-25T14:25:05;19.73;;;7.40;;
76063;SDS011;64762;52.006;8.424;2023-05-25T14:27:30;16.38;;;5.18;;
76063;SDS011;64762;52.006;8.424;2023-05-25T14:29:56;18.73;;;6.50;;
76063;SDS011;64762;52.006;8.424;2023-05-25T14:32:21;14.43;;;6.57;;
76063;SDS011;64762;52.006;8.424;2023-05-25T14:34:46;20.10;;;5.80;;
76063;SDS011;64762;52.006;8.424;2023-05-25T14:37:12;18.57;;;7.00;;
76063;SDS011;64762;52.006;8.424;2023-05-25T14:39:37;19.87;;;6.20;;
76063;SDS011;64762;52.006;8.424;2023-05-25T14:42:05;14.73;;;5.37;;
76063;SDS011;64762;52.006;8.424;2023-05-25T14:44:30;17.00;;;6.03;;
76063;SDS011;64762;52.006;8.424;2023-05-25T14:46:56;14.13;;;5.30;;
76063;SDS011;64762;52.006;8.424;2023-05-25T14:49:21;21.17;;;6.13;;
76063;SDS011;64762;52.006;8.424;2023-05-25T14:51:51;16.25;;;6.20;;
76063;SDS011;64762;52.006;8.424;2023-05-25T14:54:19;17.75;;;5.82;;
76063;SDS011;64762;52.006;8.424;2023-05-25T14:56:45;15.97;;;5.20;;
76063;SDS011;64762;52.006;8.424;2023-05-25T14:59:13;19.65;;;5.78;;
76063;SDS011;64762;52.006;8.424;2023-05-25T15:01:39;18.03;;;5.67;;